createdAt,value
2018-06-23T00:01:46.289Z,100372.60
2018-06-23T00:04:14.938Z,100383.88
2018-06-23T00:06:44.072Z,100339.31
2018-06-23T00:09:12.668Z,100380.06
2018-06-23T00:11:41.248Z,100380.72
2018-06-23T00:14:09.835Z,100384.16
2018-06-23T00:16:38.370Z,100383.00
2018-06-23T00:19:06.970Z,100381.12
2018-06-23T00:21:35.514Z,100373.70
2018-06-23T00:24:04.115Z,100373.09
2018-06-23T00:26:32.690Z,100376.37
2018-06-23T00:29:01.886Z,100378.91
2018-06-23T00:31:30.438Z,100375.64
2018-06-23T00:33:59.476Z,100368.42
2018-06-23T00:36:29.494Z,100371.19
2018-06-23T00:38:59.516Z,100371.00
2018-06-23T00:41:28.113Z,100375.81
2018-06-23T00:43:56.680Z,100375.95
2018-06-23T00:46:25.265Z,100380.34
2018-06-23T00:48:53.830Z,100371.75
2018-06-23T00:51:22.430Z,100372.10
2018-06-23T00:53:51.001Z,100366.08
2018-06-23T00:56:19.578Z,100364.56
2018-06-23T00:58:59.753Z,100366.05
2018-06-23T01:01:28.353Z,100368.69
2018-06-23T01:03:56.946Z,100366.83
2018-06-23T01:06:25.773Z,100372.44
2018-06-23T01:08:54.336Z,100372.53
2018-06-23T01:11:22.912Z,100369.22
2018-06-23T01:13:51.456Z,100367.09
2018-06-23T01:16:20.058Z,100369.39
2018-06-23T01:18:49.252Z,100371.60
2018-06-23T01:21:17.827Z,100368.63
2018-06-23T01:23:46.381Z,100365.64
2018-06-23T01:26:14.969Z,100370.57
2018-06-23T01:28:44.257Z,100368.84
2018-06-23T01:31:12.840Z,100369.99
2018-06-23T01:33:41.382Z,100375.29
2018-06-23T01:36:10.014Z,100379.01
2018-06-23T01:38:38.580Z,100382.58
2018-06-23T01:41:07.157Z,100372.98
2018-06-23T01:43:35.689Z,100379.41
2018-06-23T01:46:04.281Z,100372.17
2018-06-23T01:48:32.867Z,100372.53
2018-06-23T01:51:01.462Z,100380.55
2018-06-23T01:53:30.022Z,100377.14
2018-06-23T01:55:58.662Z,100383.11
2018-06-23T01:58:27.196Z,100392.63
2018-06-23T02:00:55.782Z,100395.98
2018-06-23T02:03:24.318Z,100392.95
2018-06-23T02:05:52.945Z,100388.65
2018-06-23T02:08:21.490Z,100385.32
2018-06-23T02:10:50.067Z,100378.66
2018-06-23T02:13:18.656Z,100371.28
2018-06-23T02:15:52.496Z,100373.21
2018-06-23T02:18:26.113Z,100376.56
2018-06-23T02:20:59.987Z,100378.86
2018-06-23T02:23:33.845Z,100377.03
2018-06-23T02:26:07.701Z,100374.63
2018-06-23T02:28:41.459Z,100375.72
2018-06-23T02:31:15.267Z,100377.98
2018-06-23T02:33:49.739Z,100379.41
2018-06-23T02:36:18.310Z,100381.19
2018-06-23T02:38:46.854Z,100383.89
2018-06-23T02:41:15.397Z,100372.51
2018-06-23T02:43:44.643Z,100375.92
2018-06-23T02:46:13.249Z,100375.36
2018-06-23T02:48:42.018Z,100385.59
2018-06-23T02:51:10.555Z,100381.48
2018-06-23T02:53:39.115Z,100380.88
2018-06-23T02:56:07.783Z,100378.87
2018-06-23T02:58:36.399Z,100380.38
2018-06-23T03:01:04.950Z,100385.69
2018-06-23T03:03:33.577Z,100391.02
2018-06-23T03:06:02.136Z,100386.88
2018-06-23T03:08:30.721Z,100386.92
2018-06-23T03:10:59.275Z,100388.28
2018-06-23T03:13:27.858Z,100387.36
2018-06-23T03:15:56.453Z,100382.02
2018-06-23T03:18:25.050Z,100387.23
2018-06-23T03:20:53.629Z,100391.80
2018-06-23T03:23:22.201Z,100392.91
2018-06-23T03:25:50.765Z,100392.59
2018-06-23T03:28:19.353Z,100389.92
2018-06-23T03:30:48.229Z,100393.31
2018-06-23T03:33:16.895Z,100397.82
2018-06-23T03:35:45.467Z,100396.34
2018-06-23T03:38:14.758Z,100393.66
2018-06-23T03:40:43.565Z,100394.62
2018-06-23T03:43:12.121Z,100386.66
2018-06-23T03:45:40.689Z,100386.70
2018-06-23T03:48:09.229Z,100393.95
2018-06-23T03:50:37.809Z,100391.25
2018-06-23T03:53:06.380Z,100394.97
2018-06-23T03:55:34.966Z,100397.87
2018-06-23T03:58:03.509Z,100397.98
2018-06-23T04:00:32.345Z,100392.89
2018-06-23T04:03:00.906Z,100398.80
2018-06-23T04:05:29.757Z,100395.92
2018-06-23T04:07:58.392Z,100387.66
2018-06-23T04:10:27.025Z,100395.97
2018-06-23T04:12:55.572Z,100396.48
2018-06-23T04:15:24.165Z,100398.99
2018-06-23T04:17:52.705Z,100404.65
2018-06-23T04:20:21.303Z,100400.75
2018-06-23T04:22:49.867Z,100402.25
2018-06-23T04:25:18.463Z,100403.70
2018-06-23T04:27:47.029Z,100410.34
2018-06-23T04:30:15.609Z,100419.23
2018-06-23T04:32:44.971Z,100404.59
2018-06-23T04:35:13.520Z,100422.70
2018-06-23T04:37:42.123Z,100418.14
2018-06-23T04:40:10.676Z,100421.62
2018-06-23T04:42:39.261Z,100421.91
2018-06-23T04:45:07.810Z,100418.51
2018-06-23T04:47:36.410Z,100418.46
2018-06-23T04:50:04.992Z,100427.41
2018-06-23T04:52:33.616Z,100421.77
2018-06-23T04:55:02.165Z,100422.75
2018-06-23T04:57:30.758Z,100417.45
2018-06-23T04:59:59.324Z,100417.25
2018-06-23T05:02:27.965Z,100420.85
2018-06-23T05:04:56.548Z,100419.82
2018-06-23T05:07:25.114Z,100418.41
2018-06-23T05:09:53.654Z,100418.28
2018-06-23T05:12:22.225Z,100417.00
2018-06-23T05:14:50.773Z,100417.50
2018-06-23T05:17:19.325Z,100421.03
2018-06-23T05:19:47.871Z,100422.45
2018-06-23T05:22:16.461Z,100419.56
2018-06-23T05:24:45.057Z,100421.42
2018-06-23T05:27:13.624Z,100418.39
2018-06-23T05:29:42.156Z,100412.26
2018-06-23T05:32:10.749Z,100418.83
2018-06-23T05:34:39.274Z,100417.33
2018-06-23T05:37:07.836Z,100422.92
2018-06-23T05:39:36.378Z,100415.65
2018-06-23T05:42:04.969Z,100415.77
2018-06-23T05:44:33.502Z,100416.77
2018-06-23T05:47:02.076Z,100426.56
2018-06-23T05:49:30.621Z,100421.76
2018-06-23T05:51:59.214Z,100431.16
2018-06-23T05:54:27.771Z,100425.90
2018-06-23T05:57:02.959Z,100426.16
2018-06-23T05:59:31.834Z,100430.29
2018-06-23T06:02:00.693Z,100422.43
2018-06-23T06:04:29.277Z,100423.34
2018-06-23T06:06:57.914Z,100424.97
2018-06-23T06:09:26.468Z,100421.83
2018-06-23T06:11:55.049Z,100415.56
2018-06-23T06:14:23.595Z,100424.36
2018-06-23T06:17:31.465Z,100430.72
2018-06-23T06:20:04.141Z,100428.97
2018-06-23T06:22:36.036Z,100427.94
2018-06-23T06:25:05.406Z,100423.37
2018-06-23T06:27:33.986Z,100423.05
2018-06-23T06:30:02.532Z,100417.92
2018-06-23T06:32:32.380Z,100418.53
2018-06-23T06:35:00.929Z,100426.05
2018-06-23T06:37:29.578Z,100429.44
2018-06-23T06:39:58.813Z,100438.45
2018-06-23T06:42:27.413Z,100433.09
2018-06-23T06:45:02.227Z,100433.13
2018-06-23T06:47:31.060Z,100434.16
2018-06-23T06:49:59.645Z,100425.78
2018-06-23T06:52:28.192Z,100426.39
2018-06-23T06:54:57.095Z,100426.63
2018-06-23T06:57:25.641Z,100426.08
2018-06-23T06:59:57.033Z,100418.05
2018-06-23T07:02:25.655Z,100424.11
2018-06-23T07:04:54.222Z,100430.69
2018-06-23T07:07:22.741Z,100437.18
2018-06-23T07:09:51.349Z,100425.20
2018-06-23T07:12:19.899Z,100426.13
2018-06-23T07:14:54.185Z,100426.86
2018-06-23T07:17:22.740Z,100428.26
2018-06-23T07:19:51.333Z,100433.81
2018-06-23T07:22:20.064Z,100434.88
2018-06-23T07:24:48.645Z,100432.97
2018-06-23T07:27:17.206Z,100431.84
2018-06-23T07:29:51.731Z,100428.05
2018-06-23T07:32:26.675Z,100437.77
2018-06-23T07:35:00.407Z,100431.91
2018-06-23T07:37:35.870Z,100438.42
2018-06-23T07:40:12.559Z,100442.39
2018-06-23T07:42:45.862Z,100439.94
2018-06-23T07:45:20.594Z,100444.33
2018-06-23T07:47:50.455Z,100440.20
2018-06-23T07:50:23.012Z,100438.69
2018-06-23T07:52:56.344Z,100434.58
2018-06-23T07:55:31.903Z,100423.91
2018-06-23T07:58:06.999Z,100426.86
2018-06-23T08:00:41.040Z,100427.19
2018-06-23T08:03:13.412Z,100426.64
2018-06-23T08:05:46.103Z,100429.49
2018-06-23T08:08:20.687Z,100423.18
2018-06-23T08:10:51.416Z,100419.38
2018-06-23T08:13:20.002Z,100416.85
2018-06-23T08:15:51.335Z,100420.80
2018-06-23T08:18:23.256Z,100426.83
2018-06-23T08:20:58.868Z,100413.92
2018-06-23T08:23:33.195Z,100412.03
2018-06-23T08:26:07.461Z,100409.78
2018-06-23T08:28:41.792Z,100403.40
2018-06-23T08:31:12.212Z,100405.73
2018-06-23T08:33:46.204Z,100405.95
2018-06-23T08:36:19.081Z,100408.59
2018-06-23T08:39:01.877Z,100400.78
2018-06-23T08:41:38.792Z,100402.02
2018-06-23T08:44:12.627Z,100403.52
2018-06-23T08:46:47.944Z,100393.80
2018-06-23T08:52:10.558Z,100383.28
2018-06-23T08:54:40.138Z,100385.64
2018-06-23T08:57:13.478Z,100387.27
2018-06-23T08:59:43.250Z,100386.79
2018-06-23T09:02:12.259Z,100382.47
2018-06-23T09:04:43.697Z,100387.73
2018-06-23T09:07:14.290Z,100376.17
2018-06-23T09:09:44.972Z,100380.84
2018-06-23T09:12:16.363Z,100382.45
2018-06-23T09:14:48.352Z,100376.47
2018-06-23T09:17:17.868Z,100372.20
2018-06-23T09:19:49.809Z,100364.36
2018-06-23T09:22:20.543Z,100369.80
2018-06-23T09:24:53.920Z,100368.50
2018-06-23T09:27:27.213Z,100371.63
2018-06-23T09:29:58.842Z,100386.51
2018-06-23T09:32:30.495Z,100385.03
2018-06-23T09:35:01.274Z,100386.77
2018-06-23T09:37:29.954Z,100378.55
2018-06-23T09:40:05.089Z,100380.42
2018-06-23T09:42:37.550Z,100372.55
2018-06-23T09:45:07.086Z,100368.87
2018-06-23T09:47:36.844Z,100370.16
2018-06-23T09:50:06.481Z,100364.69
2018-06-23T09:52:35.966Z,100360.92
2018-06-23T09:55:07.420Z,100363.50
2018-06-23T09:57:36.869Z,100360.58
2018-06-23T10:00:09.341Z,100363.67
2018-06-23T10:02:57.144Z,100358.41
2018-06-23T10:05:26.958Z,100354.48
2018-06-23T10:07:57.104Z,100361.33
2018-06-23T10:10:27.111Z,100359.64
2018-06-23T10:13:00.100Z,100359.86
2018-06-23T10:15:37.418Z,100357.91
2018-06-23T10:18:07.845Z,100345.49
2018-06-23T10:20:36.622Z,100347.84
2018-06-23T10:23:06.954Z,100354.39
2018-06-23T10:25:38.850Z,100353.20
2018-06-23T10:28:08.784Z,100349.72
2018-06-23T10:30:40.262Z,100343.82
2018-06-23T10:33:14.289Z,100338.91
2018-06-23T10:35:47.725Z,100337.17
2018-06-23T10:38:18.600Z,100341.75
2018-06-23T10:40:47.232Z,100343.86
2018-06-23T10:43:16.054Z,100343.25
2018-06-23T10:45:44.601Z,100334.78
2018-06-23T10:48:13.228Z,100339.20
2018-06-23T10:50:41.997Z,100337.03
2018-06-23T10:53:10.635Z,100332.11
2018-06-23T10:55:39.257Z,100325.84
2018-06-23T10:58:07.850Z,100325.25
2018-06-23T11:00:37.074Z,100318.77
2018-06-23T11:03:12.634Z,100323.46
2018-06-23T11:05:42.032Z,100318.64
2018-06-23T11:08:12.564Z,100311.34
2018-06-23T11:10:43.493Z,100307.00
2018-06-23T11:13:14.246Z,100306.20
2018-06-23T11:15:48.451Z,100308.13
2018-06-23T11:18:20.505Z,100313.06
2018-06-23T11:20:49.206Z,100306.04
2018-06-23T11:23:23.634Z,100299.16
2018-06-23T11:25:53.084Z,100306.67
2018-06-23T11:28:27.555Z,100305.23
2018-06-23T11:30:58.679Z,100299.78
2018-06-23T11:33:29.013Z,100297.59
2018-06-23T11:35:59.896Z,100292.90
2018-06-23T11:38:30.792Z,100287.58
2018-06-23T11:41:01.747Z,100290.69
2018-06-23T11:43:30.486Z,100292.05
2018-06-23T11:46:04.894Z,100277.32
2018-06-23T11:48:33.572Z,100279.31
2018-06-23T11:51:02.293Z,100284.27
2018-06-23T11:53:30.867Z,100284.10
2018-06-23T11:55:59.405Z,100274.16
2018-06-23T11:58:35.437Z,100272.41
2018-06-23T12:01:10.091Z,100263.66
2018-06-23T12:03:39.122Z,100265.83
2018-06-23T12:06:09.396Z,100270.00
2018-06-23T12:08:42.266Z,100268.98
2018-06-23T12:11:13.435Z,100262.55
2018-06-23T12:13:43.367Z,100265.88
2018-06-23T12:16:15.205Z,100259.00
2018-06-23T12:18:44.730Z,100253.15
2018-06-23T12:21:14.532Z,100240.58
2018-06-23T12:23:45.410Z,100245.23
2018-06-23T12:26:15.851Z,100245.25
2018-06-23T12:28:46.691Z,100249.49
2018-06-23T12:31:20.936Z,100248.23
2018-06-23T12:33:51.169Z,100242.66
2018-06-23T12:36:21.916Z,100234.13
2018-06-23T12:38:51.678Z,100230.15
2018-06-23T12:41:20.258Z,100226.15
2018-06-23T12:43:53.210Z,100248.08
2018-06-23T12:46:22.169Z,100242.30
2018-06-23T12:48:51.630Z,100246.45
2018-06-23T12:51:24.240Z,100242.56
2018-06-23T12:53:54.264Z,100238.90
2018-06-23T12:56:23.979Z,100254.53
2018-06-23T12:58:54.908Z,100244.13
2018-06-23T13:01:24.068Z,100249.77
2018-06-23T13:03:52.704Z,100245.36
2018-06-23T13:06:21.609Z,100244.71
2018-06-23T13:08:50.258Z,100230.92
2018-06-23T13:11:18.873Z,100254.11
2018-06-23T13:13:47.438Z,100246.20
2018-06-23T13:16:16.580Z,100243.90
2018-06-23T13:18:48.029Z,100244.27
2018-06-23T13:21:16.630Z,100254.22
2018-06-23T13:23:45.184Z,100239.77
2018-06-23T13:26:15.259Z,100235.02
2018-06-23T13:28:44.101Z,100238.86
2018-06-23T13:31:13.031Z,100239.86
2018-06-23T13:33:42.044Z,100240.25
2018-06-23T13:36:14.294Z,100237.52
2018-06-23T13:38:42.901Z,100238.31
2018-06-23T13:41:11.578Z,100236.87
2018-06-23T13:43:40.425Z,100228.92
2018-06-23T13:46:08.957Z,100236.73
2018-06-23T13:48:38.149Z,100226.27
2018-06-23T13:51:06.797Z,100225.36
2018-06-23T13:53:35.708Z,100223.50
2018-06-23T13:56:04.373Z,100222.06
2018-06-23T13:58:32.949Z,100226.17
2018-06-23T14:01:01.594Z,100222.79
2018-06-23T14:03:30.154Z,100221.06
2018-06-23T14:05:58.781Z,100217.64
2018-06-23T14:08:27.317Z,100210.94
2018-06-23T14:10:55.924Z,100209.78
2018-06-23T14:13:24.450Z,100219.22
2018-06-23T14:15:53.036Z,100219.16
2018-06-23T14:18:21.583Z,100208.53
2018-06-23T14:20:50.150Z,100202.16
2018-06-23T14:23:18.691Z,100193.75
2018-06-23T14:25:47.281Z,100202.35
2018-06-23T14:28:16.705Z,100205.02
2018-06-23T14:30:45.308Z,100201.11
2018-06-23T14:33:14.184Z,100206.92
2018-06-23T14:35:42.773Z,100229.42
2018-06-23T14:38:11.293Z,100211.11
2018-06-23T14:40:50.925Z,100204.77
2018-06-23T14:43:19.607Z,100205.66
2018-06-23T14:45:48.189Z,100210.09
2018-06-23T14:48:16.824Z,100214.17
2018-06-23T14:50:45.397Z,100213.17
2018-06-23T14:53:13.941Z,100217.74
2018-06-23T14:55:42.510Z,100221.55
2018-06-23T14:58:11.048Z,100213.41
2018-06-23T15:00:39.617Z,100211.88
2018-06-23T15:03:08.158Z,100214.16
2018-06-23T15:05:36.780Z,100211.29
2018-06-23T15:08:16.401Z,100214.08
2018-06-23T15:10:56.120Z,100223.61
2018-06-23T15:13:24.668Z,100214.86
2018-06-23T15:15:53.240Z,100215.80
2018-06-23T15:18:21.782Z,100213.52
2018-06-23T15:20:50.353Z,100214.80
2018-06-23T15:23:18.923Z,100211.17
2018-06-23T15:25:47.490Z,100204.09
2018-06-23T15:28:16.927Z,100203.32
2018-06-23T15:30:45.473Z,100203.20
2018-06-23T15:33:14.051Z,100203.82
2018-06-23T15:35:42.603Z,100201.78
2018-06-23T15:38:11.214Z,100197.78
2018-06-23T15:40:39.771Z,100200.58
2018-06-23T15:43:08.349Z,100209.24
2018-06-23T15:45:36.966Z,100197.36
2018-06-23T15:48:05.607Z,100196.27
2018-06-23T15:50:34.226Z,100206.96
2018-06-23T15:53:02.852Z,100200.23
2018-06-23T15:55:31.357Z,100207.28
2018-06-23T15:58:00.065Z,100203.13
2018-06-23T16:00:28.603Z,100194.51
2018-06-23T16:02:57.171Z,100199.89
2018-06-23T16:05:25.758Z,100201.85
2018-06-23T16:07:54.345Z,100198.89
2018-06-23T16:10:25.710Z,100199.97
2018-06-23T16:12:55.395Z,100205.10
2018-06-23T16:15:24.348Z,100204.03
2018-06-23T16:17:55.352Z,100201.25
2018-06-23T16:20:29.100Z,100200.44
2018-06-23T16:23:02.046Z,100204.73
2018-06-23T16:25:32.801Z,100197.49
2018-06-23T16:28:03.436Z,100198.49
2018-06-23T16:30:37.464Z,100194.31
2018-06-23T16:33:10.964Z,100199.86
2018-06-23T16:35:40.552Z,100190.90
2018-06-23T16:38:10.233Z,100198.25
2018-06-23T16:40:43.350Z,100195.75
2018-06-23T16:43:12.789Z,100191.16
2018-06-23T16:45:43.197Z,100182.66
2018-06-23T16:48:14.651Z,100179.41
2018-06-23T16:50:45.196Z,100176.36
2018-06-23T16:53:14.304Z,100179.38
2018-06-23T16:55:45.489Z,100182.46
2018-06-23T16:58:15.350Z,100188.92
2018-06-23T17:00:43.977Z,100183.90
2018-06-23T17:03:13.664Z,100178.19
2018-06-23T17:05:44.671Z,100176.88
2018-06-23T17:08:16.478Z,100173.14
2018-06-23T17:10:46.058Z,100170.78
2018-06-23T17:13:15.913Z,100173.20
2018-06-23T17:15:46.061Z,100173.56
2018-06-23T17:18:17.676Z,100173.77
2018-06-23T17:20:50.309Z,100120.87
2018-06-23T17:23:18.930Z,100175.55
2018-06-23T17:25:52.244Z,100178.73
2018-06-23T17:28:21.259Z,100171.23
2018-06-23T17:30:55.098Z,100171.95
2018-06-23T17:33:23.732Z,100186.12
2018-06-23T17:35:53.349Z,100176.85
2018-06-23T17:38:22.740Z,100172.73
2018-06-23T17:40:55.274Z,100181.06
2018-06-23T17:43:24.438Z,100176.13
2018-06-23T17:45:54.573Z,100171.14
2018-06-23T17:48:24.575Z,100170.43
2018-06-23T17:50:55.162Z,100167.49
2018-06-23T17:53:26.284Z,100169.16
2018-06-23T17:55:56.591Z,100167.05
2018-06-23T17:58:26.808Z,100167.23
2018-06-23T18:00:56.335Z,100164.50
2018-06-23T18:03:28.123Z,100168.64
2018-06-23T18:05:59.781Z,100162.85
2018-06-23T18:08:30.636Z,100169.98
2018-06-23T18:11:01.191Z,100170.32
2018-06-23T18:13:30.629Z,100168.25
2018-06-23T18:16:00.543Z,100168.58
2018-06-23T18:18:31.490Z,100168.39
2018-06-23T18:21:02.274Z,100164.33
2018-06-23T18:23:32.978Z,100163.50
2018-06-23T18:26:02.897Z,100167.23
2018-06-23T18:28:33.759Z,100164.57
2018-06-23T18:31:03.201Z,100174.02
2018-06-23T18:33:33.310Z,100172.98
2018-06-23T18:36:03.330Z,100168.45
2018-06-23T18:38:34.198Z,100174.48
2018-06-23T18:41:04.087Z,100175.25
2018-06-23T18:43:34.565Z,100165.56
2018-06-23T18:46:04.821Z,100165.63
2018-06-23T18:48:35.247Z,100160.69
2018-06-23T18:51:05.256Z,100163.42
2018-06-23T18:53:35.933Z,100163.63
2018-06-23T18:56:06.005Z,100165.27
2018-06-23T18:58:36.413Z,100161.06
2018-06-23T19:01:06.575Z,100160.23
2018-06-23T19:03:37.011Z,100163.59
2018-06-23T19:06:08.195Z,100165.17
2018-06-23T19:08:38.847Z,100164.32
2018-06-23T19:11:09.565Z,100164.18
2018-06-23T19:13:39.736Z,100167.55
2018-06-23T19:16:09.501Z,100166.09
2018-06-23T19:18:39.126Z,100166.19
2018-06-23T19:21:09.369Z,100167.47
2018-06-23T19:23:38.977Z,100164.48
2018-06-23T19:26:09.294Z,100163.67
2018-06-23T19:28:41.098Z,100175.03
2018-06-23T19:31:11.156Z,100174.97
2018-06-23T19:33:41.212Z,100174.14
2018-06-23T19:36:11.046Z,100174.08
2018-06-23T19:38:41.153Z,100173.98
2018-06-23T19:41:25.510Z,100178.55
2018-06-23T19:43:55.886Z,100177.06
2018-06-23T19:46:28.561Z,100177.03
2018-06-23T19:49:02.095Z,100183.22
2018-06-23T19:51:34.052Z,100179.98
2018-06-23T19:54:03.493Z,100178.59
2018-06-23T19:56:33.570Z,100176.30
2018-06-23T19:59:03.899Z,100177.74
2018-06-23T20:01:34.446Z,100181.81
2018-06-23T20:04:05.112Z,100182.77
2018-06-23T20:06:34.730Z,100181.94
2018-06-23T20:09:05.637Z,100189.05
2018-06-23T20:11:36.794Z,100182.33
2018-06-23T20:14:06.374Z,100189.98
2018-06-23T20:16:36.140Z,100183.31
2018-06-23T20:19:05.746Z,100183.16
2018-06-23T20:21:42.146Z,100193.48
2018-06-23T20:24:12.230Z,100192.45
2018-06-23T20:26:41.930Z,100198.97
2018-06-23T20:29:13.221Z,100201.83
2018-06-23T20:31:45.744Z,100199.48
2018-06-23T20:34:14.404Z,100195.89
2018-06-23T20:36:45.121Z,100203.55
2018-06-23T20:39:14.880Z,100201.33
2018-06-23T20:41:45.001Z,100196.30
2018-06-23T20:44:16.691Z,100195.28
2018-06-23T20:46:50.426Z,100196.90
2018-06-23T20:49:23.437Z,100198.59
2018-06-23T20:51:59.682Z,100189.63
2018-06-23T20:54:30.136Z,100192.54
2018-06-23T20:57:00.394Z,100195.66
2018-06-23T20:59:32.230Z,100193.96
2018-06-23T21:02:02.442Z,100189.44
2018-06-23T21:04:42.423Z,100187.64
2018-06-23T21:07:14.386Z,100184.16
2018-06-23T21:09:46.989Z,100171.36
2018-06-23T21:12:18.131Z,100177.19
2018-06-23T21:14:52.107Z,100178.86
2018-06-23T21:17:25.598Z,100177.64
2018-06-23T21:19:56.254Z,100178.56
2018-06-23T21:22:26.498Z,100180.95
2018-06-23T21:24:58.520Z,100175.94
2018-06-23T21:27:28.385Z,100180.68
2018-06-23T21:29:59.189Z,100178.97
2018-06-23T21:32:29.570Z,100176.02
2018-06-23T21:34:59.412Z,100173.20
2018-06-23T21:37:29.597Z,100169.33
2018-06-23T21:39:59.136Z,100168.02
2018-06-23T21:42:27.739Z,100166.13
2018-06-23T21:44:56.756Z,100171.27
2018-06-23T21:47:25.729Z,100166.48
2018-06-23T21:49:54.252Z,100173.08
2018-06-23T21:52:22.876Z,100166.11
2018-06-23T21:54:52.022Z,100164.97
2018-06-23T21:57:22.123Z,100161.21
2018-06-23T21:59:50.745Z,100165.48
2018-06-23T22:02:21.114Z,100166.88
2018-06-23T22:04:49.922Z,100160.13
2018-06-23T22:07:18.503Z,100163.19
2018-06-23T22:09:47.065Z,100157.31
2018-06-23T22:12:15.691Z,100160.97
2018-06-23T22:14:44.255Z,100162.36
2018-06-23T22:17:12.872Z,100159.31
2018-06-23T22:19:41.489Z,100163.67
2018-06-23T22:22:10.080Z,100167.03
2018-06-23T22:24:38.901Z,100162.62
2018-06-23T22:27:07.515Z,100149.59
2018-06-23T22:29:36.113Z,100155.41
2018-06-23T22:32:04.783Z,100148.56
2018-06-23T22:34:35.377Z,100149.90
2018-06-23T22:37:03.990Z,100147.07
2018-06-23T22:39:32.559Z,100143.33
2018-06-23T22:42:01.521Z,100140.02
2018-06-23T22:44:30.063Z,100140.41
2018-06-23T22:46:58.665Z,100139.68
2018-06-23T22:49:27.229Z,100146.73
2018-06-23T22:51:55.781Z,100141.90
2018-06-23T22:54:24.397Z,100139.69
2018-06-23T22:56:52.954Z,100137.81
2018-06-23T22:59:24.204Z,100139.27
2018-06-23T23:01:52.790Z,100138.45
2018-06-23T23:04:21.403Z,100136.63
2018-06-23T23:06:50.205Z,100135.93
2018-06-23T23:09:18.786Z,100136.90
2018-06-23T23:11:47.329Z,100134.70
2018-06-23T23:14:15.920Z,100130.59
2018-06-23T23:16:45.357Z,100127.72
2018-06-23T23:19:13.964Z,100126.99
2018-06-23T23:21:42.494Z,100128.02
2018-06-23T23:24:11.061Z,100121.44
2018-06-23T23:26:39.606Z,100121.00
2018-06-23T23:29:08.186Z,100121.84
2018-06-23T23:31:36.779Z,100117.05
2018-06-23T23:34:05.658Z,100117.43
2018-06-23T23:36:34.229Z,100112.80
2018-06-23T23:39:02.877Z,100113.58
2018-06-23T23:41:31.414Z,100110.74
2018-06-23T23:44:00.005Z,100104.19
2018-06-23T23:46:28.554Z,100105.81
2018-06-23T23:48:57.162Z,100103.76
2018-06-23T23:51:25.712Z,100106.19
2018-06-23T23:53:54.320Z,100109.53
2018-06-23T23:56:22.966Z,100099.37
2018-06-23T23:58:51.557Z,100101.45
